createdAt,value
2018-11-07T00:02:22.643Z,9.48
2018-11-07T00:04:54.501Z,9.45
2018-11-07T00:07:24.977Z,9.44
2018-11-07T00:10:13.148Z,9.41
2018-11-07T00:12:44.146Z,9.43
2018-11-07T00:15:15.853Z,9.41
2018-11-07T00:17:46.559Z,9.39
2018-11-07T00:20:17.807Z,9.36
2018-11-07T00:22:49.288Z,9.33
2018-11-07T00:25:20.596Z,9.36
2018-11-07T00:27:52.244Z,9.34
2018-11-07T00:30:24.113Z,9.34
2018-11-07T00:32:54.940Z,9.33
2018-11-07T00:35:25.995Z,9.34
2018-11-07T00:37:57.121Z,9.32
2018-11-07T00:40:27.840Z,9.35
2018-11-07T00:42:59.078Z,9.38
2018-11-07T00:45:29.971Z,9.38
2018-11-07T00:48:00.849Z,9.38
2018-11-07T00:50:31.475Z,9.39
2018-11-07T00:53:03.698Z,9.39
2018-11-07T00:55:34.771Z,9.39
2018-11-07T00:58:05.698Z,9.43
2018-11-07T01:00:36.572Z,9.43
2018-11-07T01:03:07.268Z,9.38
2018-11-07T01:05:38.530Z,9.28
2018-11-07T01:08:10.147Z,9.26
2018-11-07T01:10:41.207Z,9.19
2018-11-07T01:13:12.074Z,9.17
2018-11-07T01:15:42.705Z,9.16
2018-11-07T01:18:13.379Z,9.16
2018-11-07T01:20:44.144Z,9.16
2018-11-07T01:23:14.751Z,9.14
2018-11-07T01:25:45.404Z,9.11
2018-11-07T01:28:16.196Z,9.13
2018-11-07T01:30:46.952Z,9.15
2018-11-07T01:33:17.624Z,9.16
2018-11-07T01:35:48.231Z,9.17
2018-11-07T01:38:18.886Z,9.19
2018-11-07T01:40:49.607Z,9.22
2018-11-07T01:43:20.240Z,9.24
2018-11-07T01:45:50.915Z,9.23
2018-11-07T01:48:21.600Z,9.22
2018-11-07T01:50:52.236Z,9.25
2018-11-07T01:53:22.956Z,9.26
2018-11-07T01:55:53.657Z,9.28
2018-11-07T01:58:24.330Z,9.29
2018-11-07T02:00:55.380Z,9.29
2018-11-07T02:03:25.999Z,9.29
2018-11-07T02:05:57.263Z,9.26
2018-11-07T02:08:31.634Z,9.26
2018-11-07T02:11:02.559Z,9.20
2018-11-07T02:13:33.230Z,9.19
2018-11-07T02:16:04.101Z,9.19
2018-11-07T02:18:34.787Z,9.17
2018-11-07T02:21:05.588Z,9.15
2018-11-07T02:23:36.335Z,9.14
2018-11-07T02:26:07.412Z,9.11
2018-11-07T02:28:38.288Z,9.11
2018-11-07T02:31:09.356Z,9.08
2018-11-07T02:33:40.473Z,9.07
2018-11-07T02:36:12.131Z,9.05
2018-11-07T02:38:44.625Z,9.03
2018-11-07T02:41:15.573Z,9.02
2018-11-07T02:43:46.273Z,9.02
2018-11-07T02:46:17.051Z,9.01
2018-11-07T02:48:48.868Z,9.00
2018-11-07T02:51:19.600Z,9.01
2018-11-07T02:53:50.333Z,8.99
2018-11-07T02:56:21.079Z,8.96
2018-11-07T02:58:51.887Z,8.97
2018-11-07T03:01:22.869Z,9.00
2018-11-07T03:03:53.672Z,8.98
2018-11-07T03:06:24.568Z,8.99
2018-11-07T03:08:55.413Z,8.93
2018-11-07T03:11:26.134Z,8.91
2018-11-07T03:13:56.761Z,8.86
2018-11-07T03:16:27.509Z,8.83
2018-11-07T03:18:58.231Z,8.84
2018-11-07T03:21:28.867Z,8.82
2018-11-07T03:24:00.142Z,8.80
2018-11-07T03:26:30.774Z,8.79
2018-11-07T03:29:01.460Z,8.82
2018-11-07T03:31:32.130Z,8.84
2018-11-07T03:34:02.849Z,8.84
2018-11-07T03:36:34.292Z,8.84
2018-11-07T03:39:08.208Z,8.86
2018-11-07T03:41:40.048Z,8.85
2018-11-07T03:44:11.252Z,8.82
2018-11-07T03:46:42.008Z,8.84
2018-11-07T03:49:12.685Z,8.81
2018-11-07T03:51:43.295Z,8.80
2018-11-07T03:54:14.029Z,8.80
2018-11-07T03:56:44.692Z,8.80
2018-11-07T03:59:15.527Z,8.80
2018-11-07T04:01:46.121Z,8.81
2018-11-07T04:04:17.184Z,8.79
2018-11-07T04:06:47.960Z,8.78
2018-11-07T04:09:18.836Z,8.74
2018-11-07T04:11:49.468Z,8.71
2018-11-07T04:14:20.005Z,8.70
2018-11-07T04:16:50.755Z,8.62
2018-11-07T04:19:21.337Z,8.58
2018-11-07T04:21:52.295Z,8.55
2018-11-07T04:24:23.013Z,8.50
2018-11-07T04:26:53.695Z,8.49
2018-11-07T04:29:24.279Z,8.52
2018-11-07T04:31:55.208Z,8.53
2018-11-07T04:34:25.851Z,8.54
2018-11-07T04:36:56.499Z,8.54
2018-11-07T04:39:27.193Z,8.53
2018-11-07T04:41:58.867Z,8.54
2018-11-07T04:44:29.650Z,8.54
2018-11-07T04:47:01.490Z,8.54
2018-11-07T04:49:33.165Z,8.50
2018-11-07T04:52:06.024Z,8.46
2018-11-07T04:54:36.908Z,8.43
2018-11-07T04:57:08.045Z,8.41
2018-11-07T04:59:38.748Z,8.45
2018-11-07T05:02:09.381Z,8.41
2018-11-07T05:04:40.012Z,8.39
2018-11-07T05:07:10.949Z,8.39
2018-11-07T05:09:41.783Z,8.36
2018-11-07T05:12:12.694Z,8.35
2018-11-07T05:14:43.855Z,8.32
2018-11-07T05:17:14.503Z,8.34
2018-11-07T05:19:45.363Z,8.32
2018-11-07T05:22:16.397Z,8.30
2018-11-07T05:24:47.708Z,8.26
2018-11-07T05:27:18.125Z,8.24
2018-11-07T05:29:48.681Z,8.21
2018-11-07T05:32:19.290Z,8.19
2018-11-07T05:34:50.671Z,8.19
2018-11-07T05:37:21.523Z,8.17
2018-11-07T05:39:52.159Z,8.15
2018-11-07T05:42:23.137Z,8.17
2018-11-07T05:44:53.967Z,8.12
2018-11-07T05:47:24.544Z,8.09
2018-11-07T05:49:55.304Z,8.06
2018-11-07T05:52:26.162Z,8.01
2018-11-07T05:54:57.068Z,8.00
2018-11-07T05:57:28.268Z,8.02
2018-11-07T05:59:58.933Z,8.01
2018-11-07T06:02:29.895Z,8.04
2018-11-07T06:05:00.612Z,8.01
2018-11-07T06:07:40.423Z,8.01
2018-11-07T06:10:14.868Z,8.03
2018-11-07T06:12:48.934Z,8.06
2018-11-07T06:15:20.960Z,7.99
2018-11-07T06:17:52.010Z,7.95
2018-11-07T06:20:23.213Z,7.94
2018-11-07T06:22:53.868Z,7.96
2018-11-07T06:25:25.233Z,7.98
2018-11-07T06:27:55.870Z,7.99
2018-11-07T06:30:26.561Z,8.01
2018-11-07T06:32:57.580Z,7.99
2018-11-07T06:35:29.368Z,7.97
2018-11-07T06:38:00.005Z,8.00
2018-11-07T06:40:30.852Z,8.02
2018-11-07T06:43:01.627Z,8.04
2018-11-07T06:45:32.455Z,8.11
2018-11-07T06:48:02.996Z,8.24
2018-11-07T06:50:33.727Z,8.38
2018-11-07T06:53:04.546Z,8.44
2018-11-07T06:55:35.289Z,8.40
2018-11-07T06:58:07.444Z,8.41
2018-11-07T07:00:39.224Z,8.38
2018-11-07T07:03:11.032Z,8.37
2018-11-07T07:05:41.580Z,8.35
2018-11-07T07:08:12.340Z,8.32
2018-11-07T07:10:43.096Z,8.26
2018-11-07T07:13:13.682Z,8.26
2018-11-07T07:15:44.309Z,8.31
2018-11-07T07:18:15.340Z,8.35
2018-11-07T07:20:46.075Z,8.33
2018-11-07T07:23:16.940Z,8.29
2018-11-07T07:25:47.659Z,8.27
2018-11-07T07:28:19.116Z,8.23
2018-11-07T07:30:49.833Z,8.32
2018-11-07T07:33:20.430Z,8.46
2018-11-07T07:35:51.297Z,8.62
2018-11-07T07:38:21.953Z,8.80
2018-11-07T07:40:57.220Z,8.97
2018-11-07T07:43:28.212Z,9.17
2018-11-07T07:45:59.303Z,9.35
2018-11-07T07:48:29.995Z,9.39
2018-11-07T07:51:05.107Z,9.33
2018-11-07T07:53:36.364Z,9.31
2018-11-07T07:56:07.052Z,9.37
2018-11-07T07:58:37.933Z,9.55
2018-11-07T08:01:08.611Z,9.78
2018-11-07T08:03:39.191Z,10.05
2018-11-07T08:06:09.848Z,10.31
2018-11-07T08:08:43.577Z,10.40
2018-11-07T08:11:14.268Z,10.58
2018-11-07T08:13:45.065Z,10.68
2018-11-07T08:16:16.680Z,10.85
2018-11-07T08:18:47.320Z,11.04
2018-11-07T08:21:18.087Z,11.21
2018-11-07T08:23:49.016Z,11.32
2018-11-07T08:26:21.808Z,11.36
2018-11-07T08:28:52.427Z,11.44
2018-11-07T08:31:23.225Z,11.54
2018-11-07T08:33:54.164Z,11.50
2018-11-07T08:36:25.588Z,11.67
2018-11-07T08:38:56.463Z,11.79
2018-11-07T08:41:27.028Z,11.85
2018-11-07T08:43:57.704Z,12.01
2018-11-07T08:46:28.329Z,12.18
2018-11-07T08:48:59.069Z,12.30
2018-11-07T08:51:29.896Z,12.36
2018-11-07T08:54:00.813Z,12.47
2018-11-07T08:56:32.132Z,12.58
2018-11-07T08:59:02.928Z,12.74
2018-11-07T09:04:04.340Z,13.04
2018-11-07T09:06:36.091Z,13.18
2018-11-07T09:09:12.521Z,13.31
2018-11-07T09:11:44.443Z,13.44
2018-11-07T09:14:16.281Z,13.54
2018-11-07T09:16:50.477Z,13.62
2018-11-07T09:19:21.265Z,13.70
2018-11-07T09:21:52.024Z,13.87
2018-11-07T09:24:22.679Z,14.00
2018-11-07T09:26:53.461Z,14.13
2018-11-07T09:29:28.521Z,14.27
2018-11-07T09:31:59.471Z,14.38
2018-11-07T09:34:35.258Z,14.53
2018-11-07T09:37:06.047Z,14.65
2018-11-07T09:39:37.591Z,14.81
2018-11-07T09:42:09.158Z,14.87
2018-11-07T09:44:39.764Z,14.95
2018-11-07T09:47:10.287Z,15.01
2018-11-07T09:49:41.245Z,15.04
2018-11-07T09:52:11.647Z,15.14
2018-11-07T09:54:42.591Z,15.18
2018-11-07T09:57:13.345Z,15.27
2018-11-07T09:59:44.929Z,15.36
2018-11-07T10:02:15.669Z,15.38
2018-11-07T10:04:46.721Z,15.47
2018-11-07T10:07:17.503Z,15.59
2018-11-07T10:09:49.152Z,15.66
2018-11-07T10:12:20.406Z,15.79
2018-11-07T10:14:55.447Z,15.93
2018-11-07T10:17:28.731Z,16.08
2018-11-07T10:19:59.359Z,16.22
2018-11-07T10:22:29.970Z,16.28
2018-11-07T10:25:00.685Z,16.32
2018-11-07T10:27:32.369Z,16.43
2018-11-07T10:30:03.384Z,16.49
2018-11-07T10:32:33.845Z,16.53
2018-11-07T10:35:04.884Z,16.64
2018-11-07T10:37:37.600Z,16.73
2018-11-07T10:40:14.609Z,16.82
2018-11-07T10:42:45.912Z,16.92
2018-11-07T10:45:16.841Z,16.91
2018-11-07T10:47:48.102Z,16.89
2018-11-07T10:50:20.196Z,16.94
2018-11-07T10:52:51.236Z,17.04
2018-11-07T10:55:21.908Z,17.10
2018-11-07T10:57:52.751Z,17.00
2018-11-07T11:00:31.642Z,17.01
2018-11-07T11:03:09.475Z,16.98
2018-11-07T11:05:41.612Z,17.03
2018-11-07T11:08:12.271Z,17.02
2018-11-07T11:10:43.294Z,16.91
2018-11-07T11:13:14.536Z,16.87
2018-11-07T11:15:45.241Z,16.85
2018-11-07T11:18:16.058Z,16.77
2018-11-07T11:20:46.667Z,16.82
2018-11-07T11:23:17.356Z,16.90
2018-11-07T11:25:48.014Z,16.90
2018-11-07T11:28:18.939Z,16.95
2018-11-07T11:30:49.555Z,16.96
2018-11-07T11:33:21.157Z,16.97
2018-11-07T11:35:53.624Z,16.98
2018-11-07T11:38:28.369Z,17.01
2018-11-07T11:41:00.102Z,17.10
2018-11-07T11:46:13.520Z,17.12
2018-11-07T11:48:44.092Z,17.18
2018-11-07T11:51:15.867Z,17.16
2018-11-07T11:53:46.632Z,17.21
2018-11-07T11:56:17.219Z,17.17
2018-11-07T11:58:47.927Z,17.18
2018-11-07T12:01:20.305Z,17.12
2018-11-07T12:03:50.940Z,17.07
2018-11-07T12:06:21.540Z,17.10
2018-11-07T12:08:52.356Z,17.15
2018-11-07T12:11:23.165Z,17.19
2018-11-07T12:13:53.873Z,17.24
2018-11-07T12:16:26.283Z,17.26
2018-11-07T12:18:57.068Z,17.26
2018-11-07T12:21:27.681Z,17.26
2018-11-07T12:23:58.348Z,17.31
2018-11-07T12:26:29.143Z,17.35
2018-11-07T12:29:00.005Z,17.38
2018-11-07T12:31:30.887Z,17.41
2018-11-07T12:34:01.539Z,17.46
2018-11-07T12:36:32.300Z,17.47
2018-11-07T12:39:03.116Z,17.51
2018-11-07T12:41:34.272Z,17.55
2018-11-07T12:44:05.427Z,17.61
2018-11-07T12:46:36.027Z,17.62
2018-11-07T12:49:07.245Z,17.63
2018-11-07T12:51:38.045Z,17.67
2018-11-07T12:54:08.645Z,17.69
2018-11-07T12:56:39.284Z,17.70
2018-11-07T12:59:09.847Z,17.70
2018-11-07T13:01:40.859Z,17.71
2018-11-07T13:04:11.452Z,17.71
2018-11-07T13:06:42.220Z,17.76
2018-11-07T13:09:16.072Z,17.79
2018-11-07T13:11:46.894Z,17.85
2018-11-07T13:14:17.484Z,17.90
2018-11-07T13:16:48.255Z,17.92
2018-11-07T13:19:18.857Z,17.94
2018-11-07T13:21:49.654Z,17.97
2018-11-07T13:24:20.444Z,17.95
2018-11-07T13:26:51.097Z,17.98
2018-11-07T13:29:21.690Z,17.96
2018-11-07T13:31:52.843Z,17.95
2018-11-07T13:34:23.767Z,17.96
2018-11-07T13:36:56.283Z,17.96
2018-11-07T13:39:30.224Z,17.97
2018-11-07T13:42:02.821Z,17.99
2018-11-07T13:44:33.577Z,17.98
2018-11-07T13:47:04.202Z,17.98
2018-11-07T13:49:36.681Z,17.94
2018-11-07T13:52:08.347Z,17.93
2018-11-07T13:54:39.492Z,17.88
2018-11-07T13:57:10.203Z,17.84
2018-11-07T13:59:42.343Z,17.84
2018-11-07T14:02:13.121Z,17.86
2018-11-07T14:04:44.136Z,17.85
2018-11-07T14:07:16.451Z,17.87
2018-11-07T14:09:48.700Z,17.88
2018-11-07T14:12:21.869Z,17.88
2018-11-07T14:14:54.006Z,17.85
2018-11-07T14:17:25.085Z,17.87
2018-11-07T14:19:55.723Z,17.85
2018-11-07T14:22:26.460Z,17.86
2018-11-07T14:24:58.613Z,17.85
2018-11-07T14:27:29.476Z,17.85
2018-11-07T14:30:00.232Z,17.85
2018-11-07T14:32:31.988Z,17.83
2018-11-07T14:35:02.839Z,17.82
2018-11-07T14:37:34.588Z,17.83
2018-11-07T14:40:05.936Z,17.82
2018-11-07T14:42:37.214Z,17.79
2018-11-07T14:45:09.698Z,17.78
2018-11-07T14:47:41.407Z,17.77
2018-11-07T14:50:13.203Z,17.74
2018-11-07T14:52:44.146Z,17.71
2018-11-07T14:55:14.893Z,17.70
2018-11-07T14:57:45.717Z,17.67
2018-11-07T15:00:16.977Z,17.64
2018-11-07T15:02:48.170Z,17.64
2018-11-07T15:05:19.506Z,17.59
2018-11-07T15:07:50.759Z,17.55
2018-11-07T15:10:21.393Z,17.50
2018-11-07T15:12:52.076Z,17.46
2018-11-07T15:15:22.804Z,17.44
2018-11-07T15:17:54.746Z,17.38
2018-11-07T15:20:26.046Z,17.34
2018-11-07T15:22:58.809Z,17.28
2018-11-07T15:25:30.564Z,17.25
2018-11-07T15:28:01.442Z,17.20
2018-11-07T15:30:32.978Z,17.15
2018-11-07T15:33:03.761Z,17.07
2018-11-07T15:35:34.665Z,17.03
2018-11-07T15:38:05.824Z,16.97
2018-11-07T15:40:36.591Z,16.87
2018-11-07T15:43:07.613Z,16.80
2018-11-07T15:45:38.347Z,16.71
2018-11-07T15:48:10.580Z,16.61
2018-11-07T15:50:46.348Z,16.52
2018-11-07T15:53:17.240Z,16.44
2018-11-07T15:55:47.943Z,16.33
2018-11-07T15:58:18.610Z,16.23
2018-11-07T16:00:49.215Z,16.16
2018-11-07T16:03:25.215Z,16.08
2018-11-07T16:05:55.840Z,16.02
2018-11-07T16:08:26.795Z,15.93
2018-11-07T16:10:57.448Z,15.86
2018-11-07T16:13:28.209Z,15.80
2018-11-07T16:15:58.966Z,15.73
2018-11-07T16:18:30.201Z,15.66
2018-11-07T16:21:01.016Z,15.60
2018-11-07T16:23:31.850Z,15.53
2018-11-07T16:26:02.791Z,15.46
2018-11-07T16:28:33.755Z,15.37
2018-11-07T16:31:04.549Z,15.28
2018-11-07T16:33:35.192Z,15.23
2018-11-07T16:36:06.905Z,15.14
2018-11-07T16:38:39.197Z,15.05
2018-11-07T16:41:13.241Z,14.96
2018-11-07T16:43:47.212Z,14.86
2018-11-07T16:46:18.107Z,14.77
2018-11-07T16:48:49.748Z,14.65
2018-11-07T16:51:21.671Z,14.57
2018-11-07T16:53:52.325Z,14.47
2018-11-07T16:56:25.641Z,14.35
2018-11-07T16:58:56.601Z,14.22
2018-11-07T17:01:27.468Z,14.09
2018-11-07T17:03:58.119Z,14.02
2018-11-07T17:06:29.039Z,13.98
2018-11-07T17:08:59.940Z,13.98
2018-11-07T17:11:30.601Z,13.95
2018-11-07T17:14:01.340Z,13.92
2018-11-07T17:16:33.279Z,13.88
2018-11-07T17:19:05.488Z,13.84
2018-11-07T17:21:36.323Z,13.78
2018-11-07T17:24:06.859Z,13.69
2018-11-07T17:26:37.702Z,13.62
2018-11-07T17:29:08.349Z,13.53
2018-11-07T17:31:39.320Z,13.44
2018-11-07T17:34:10.103Z,13.37
2018-11-07T17:36:40.861Z,13.34
2018-11-07T17:39:11.679Z,13.26
2018-11-07T17:41:42.276Z,13.20
2018-11-07T17:44:12.922Z,13.17
2018-11-07T17:46:43.699Z,13.11
2018-11-07T17:49:14.700Z,13.07
2018-11-07T17:51:45.532Z,13.01
2018-11-07T17:54:16.232Z,12.97
2018-11-07T17:56:47.086Z,12.90
2018-11-07T17:59:17.811Z,12.87
2018-11-07T18:01:48.691Z,12.81
2018-11-07T18:04:19.555Z,12.75
2018-11-07T18:06:50.283Z,12.70
2018-11-07T18:09:20.871Z,12.64
2018-11-07T18:11:51.689Z,12.60
2018-11-07T18:14:22.675Z,12.55
2018-11-07T18:16:54.520Z,12.45
2018-11-07T18:19:25.475Z,12.41
2018-11-07T18:21:56.264Z,12.37
2018-11-07T18:24:27.016Z,12.19
2018-11-07T18:26:57.719Z,11.93
2018-11-07T18:29:28.531Z,11.82
2018-11-07T18:31:59.340Z,11.76
2018-11-07T18:34:29.971Z,11.74
2018-11-07T18:37:01.421Z,11.70
2018-11-07T18:39:32.236Z,11.64
2018-11-07T18:42:02.912Z,11.64
2018-11-07T18:44:33.922Z,11.63
2018-11-07T18:47:05.894Z,11.60
2018-11-07T18:49:37.650Z,11.56
2018-11-07T18:52:09.637Z,11.55
2018-11-07T18:54:40.616Z,11.54
2018-11-07T18:57:12.273Z,11.56
2018-11-07T18:59:44.149Z,11.60
2018-11-07T19:02:15.877Z,11.59
2018-11-07T19:04:46.805Z,11.60
2018-11-07T19:07:17.558Z,11.55
2018-11-07T19:09:49.558Z,11.60
2018-11-07T19:12:21.213Z,11.57
2018-11-07T19:14:52.269Z,11.41
2018-11-07T19:17:23.431Z,11.36
2018-11-07T19:19:54.192Z,11.36
2018-11-07T19:22:24.817Z,11.28
2018-11-07T19:24:55.959Z,11.17
2018-11-07T19:27:26.601Z,11.15
2018-11-07T19:29:57.356Z,11.15
2018-11-07T19:32:28.124Z,11.19
2018-11-07T19:34:58.799Z,11.20
2018-11-07T19:37:30.452Z,11.21
2018-11-07T19:40:02.128Z,11.18
2018-11-07T19:42:33.035Z,11.15
2018-11-07T19:45:04.044Z,11.09
2018-11-07T19:47:34.987Z,10.99
2018-11-07T19:50:07.001Z,10.97
2018-11-07T19:52:37.771Z,10.95
2018-11-07T19:55:12.420Z,10.89
2018-11-07T19:57:45.632Z,10.87
2018-11-07T20:00:17.825Z,10.86
2018-11-07T20:02:50.306Z,10.83
2018-11-07T20:05:22.259Z,10.81
2018-11-07T20:07:53.715Z,10.79
2018-11-07T20:10:25.545Z,10.77
2018-11-07T20:12:56.614Z,10.71
2018-11-07T20:15:27.764Z,10.70
2018-11-07T20:17:58.711Z,10.67
2018-11-07T20:20:29.550Z,10.63
2018-11-07T20:23:00.369Z,10.64
2018-11-07T20:25:31.391Z,10.63
2018-11-07T20:28:02.125Z,10.62
2018-11-07T20:30:33.166Z,10.64
2018-11-07T20:33:03.820Z,10.58
2018-11-07T20:35:34.798Z,10.58
2018-11-07T20:38:06.072Z,10.56
2018-11-07T20:40:36.897Z,10.58
2018-11-07T20:43:07.821Z,10.57
2018-11-07T20:45:38.496Z,10.56
2018-11-07T20:48:09.249Z,10.57
2018-11-07T20:50:40.401Z,10.56
2018-11-07T20:53:12.643Z,10.56
2018-11-07T20:55:43.756Z,10.56
2018-11-07T20:58:14.485Z,10.53
2018-11-07T21:00:45.119Z,10.54
2018-11-07T21:03:16.472Z,10.54
2018-11-07T21:05:47.420Z,10.53
2018-11-07T21:08:18.124Z,10.51
2018-11-07T21:10:49.874Z,10.50
2018-11-07T21:13:20.751Z,10.51
2018-11-07T21:15:51.316Z,10.53
2018-11-07T21:18:21.998Z,10.53
2018-11-07T21:20:52.978Z,10.53
2018-11-07T21:23:23.697Z,10.51
2018-11-07T21:25:54.601Z,10.50
2018-11-07T21:28:25.246Z,10.50
2018-11-07T21:30:56.014Z,10.51
2018-11-07T21:33:26.783Z,10.52
2018-11-07T21:35:57.637Z,10.55
2018-11-07T21:38:28.268Z,10.54
2018-11-07T21:40:59.102Z,10.56
2018-11-07T21:43:29.843Z,10.55
2018-11-07T21:46:01.140Z,10.56
2018-11-07T21:48:32.351Z,10.55
2018-11-07T21:51:05.725Z,10.56
2018-11-07T21:53:37.749Z,10.58
2018-11-07T21:56:08.787Z,10.59
2018-11-07T21:58:41.341Z,10.62
2018-11-07T22:01:12.029Z,10.60
2018-11-07T22:03:43.835Z,10.56
2018-11-07T22:06:15.322Z,10.56
2018-11-07T22:08:46.512Z,10.59
2018-11-07T22:11:17.575Z,10.59
2018-11-07T22:13:48.649Z,10.56
2018-11-07T22:16:19.403Z,10.56
2018-11-07T22:18:50.166Z,10.54
2018-11-07T22:21:20.827Z,10.51
2018-11-07T22:23:51.838Z,10.52
2018-11-07T22:26:22.800Z,10.52
2018-11-07T22:28:54.104Z,10.52
2018-11-07T22:31:24.751Z,10.53
2018-11-07T22:33:55.695Z,10.52
2018-11-07T22:36:26.688Z,10.54
2018-11-07T22:38:57.720Z,10.54
2018-11-07T22:41:28.588Z,10.55
2018-11-07T22:43:59.314Z,10.55
2018-11-07T22:46:30.563Z,10.53
2018-11-07T22:49:01.281Z,10.53
2018-11-07T22:51:32.036Z,10.51
2018-11-07T22:54:04.151Z,10.53
2018-11-07T22:56:35.141Z,10.51
2018-11-07T22:59:05.864Z,10.51
2018-11-07T23:01:39.589Z,10.49
2018-11-07T23:04:11.496Z,10.50
2018-11-07T23:06:42.256Z,10.45
2018-11-07T23:09:14.664Z,10.43
2018-11-07T23:11:45.616Z,10.45
2018-11-07T23:14:16.429Z,10.43
2018-11-07T23:16:46.844Z,10.43
2018-11-07T23:19:17.449Z,10.44
2018-11-07T23:21:48.237Z,10.46
2018-11-07T23:24:19.709Z,10.45
2018-11-07T23:26:50.412Z,10.46
2018-11-07T23:29:21.216Z,10.47
2018-11-07T23:31:51.911Z,10.48
2018-11-07T23:34:22.564Z,10.47
2018-11-07T23:36:53.299Z,10.47
2018-11-07T23:39:26.023Z,10.47
2018-11-07T23:41:57.182Z,10.43
2018-11-07T23:44:28.394Z,10.41
2018-11-07T23:46:59.840Z,10.39
2018-11-07T23:49:31.369Z,10.41
2018-11-07T23:52:02.541Z,10.44
2018-11-07T23:54:33.205Z,10.44
2018-11-07T23:57:04.008Z,10.44
2018-11-07T23:59:34.485Z,10.43
